Time;durP1;ratioP1;P1;durP2;ratioP2;P2;SDS_P1;SDS_P2;PMS_P1;PMS_P2;Temp;Humidity;BMP_temperature;BMP_pressure;BME280_temperature;BME280_humidity;BME280_pressure;Samples;Min_cycle;Max_cycle;Signal;HPM_P1;HPM_P2
2023/03/08 00:01:00;;;;;;;142.52;80.32;;;;;;;18.34;78.19;99158.47;4909770;29;20111;-60
2023/03/08 00:03:54;;;;;;;141.10;77.57;;;;;;;18.24;78.57;99150.16;4909393;29;20048;-60
2023/03/08 00:06:36;;;;;;;149.40;82.68;;;;;;;18.25;78.68;99143.75;4908827;29;20047;-61
2023/03/08 00:09:25;;;;;;;145.63;79.90;;;;;;;18.38;78.87;99162.31;4908972;29;20052;-60
2023/03/08 00:12:14;;;;;;;160.77;85.25;;;;;;;18.35;78.12;99165.47;4906237;28;21295;-60
2023/03/08 00:15:10;;;;;;;149.75;85.68;;;;;;;18.27;78.23;99155.09;4927861;29;20142;-61
2023/03/08 00:17:45;;;;;;;152.60;86.60;;;;;;;18.26;77.61;99173.03;4927944;29;20075;-60
2023/03/08 00:20:34;;;;;;;156.63;83.93;;;;;;;18.31;77.38;99181.22;4927593;29;20047;-61
2023/03/08 00:23:23;;;;;;;153.48;84.53;;;;;;;18.28;76.99;99178.16;4909258;29;20147;-61
2023/03/08 00:26:05;;;;;;;154.02;85.28;;;;;;;18.28;76.75;99175.47;4919287;29;20078;-60
2023/03/08 00:28:55;;;;;;;147.25;83.03;;;;;;;18.29;76.73;99185.16;4927472;29;20051;-61
2023/03/08 00:31:37;;;;;;;172.80;84.75;;;;;;;18.25;76.59;99184.00;4923907;29;20165;-59
2023/03/08 00:34:26;;;;;;;144.38;79.95;;;;;;;18.28;75.64;99181.66;4898167;29;20062;-60
2023/03/08 00:37:08;;;;;;;158.30;80.70;;;;;;;18.32;75.40;99196.25;4921697;29;20047;-64
2023/03/08 00:39:58;;;;;;;139.32;76.57;;;;;;;18.31;75.45;99202.66;4880795;29;20056;-60
2023/03/08 00:42:40;;;;;;;;;;;;;;;18.31;75.49;99201.84;4927019;29;20130;-59
2023/03/08 00:45:29;;;;;;;132.82;72.97;;;;;;;18.42;75.33;99199.19;4896982;29;19927;-60
2023/03/08 00:48:11;;;;;;;133.88;74.10;;;;;;;18.30;75.09;99200.22;4908210;29;20070;-60
2023/03/08 00:51:00;;;;;;;132.55;74.10;;;;;;;18.30;74.89;99211.75;4924479;28;20106;-59
2023/03/08 00:53:49;;;;;;;139.50;72.65;;;;;;;18.32;74.27;99209.66;4891081;29;20052;-60
2023/03/08 00:56:31;;;;;;;133.50;71.07;;;;;;;18.29;74.56;99211.97;4918853;29;20083;-61
2023/03/08 00:59:20;;;;;;;134.70;73.80;;;;;;;18.34;74.52;99212.09;4909883;29;20500;-60
2023/03/08 01:02:03;;;;;;;;;;;;;;;18.34;74.62;99215.59;4918436;29;20043;-60
2023/03/08 01:04:52;;;;;;;128.45;71.13;;;;;;;18.26;74.43;99215.94;4910418;29;19926;-60
2023/03/08 01:07:41;;;;;;;138.98;73.32;;;;;;;18.21;75.07;99228.41;4910247;29;20055;-61
2023/03/08 01:10:23;;;;;;;143.32;72.88;;;;;;;18.24;74.92;99231.44;4910299;29;20051;-61
2023/03/08 01:13:14;;;;;;;131.05;72.32;;;;;;;18.23;75.15;99237.84;4937724;28;20074;-59
2023/03/08 01:15:56;;;;;;;137.00;73.90;;;;;;;18.23;75.05;99227.09;4923030;29;20115;-59
2023/03/08 01:18:46;;;;;;;131.98;74.68;;;;;;;18.11;75.42;99220.91;4907739;29;20115;-60
2023/03/08 01:21:29;;;;;;;144.57;72.97;;;;;;;18.19;75.50;99236.66;4921855;29;20491;-60
2023/03/08 01:24:20;;;;;;;130.15;71.10;;;;;;;18.17;75.72;99243.31;4891468;29;20152;-61
2023/03/08 01:27:04;;;;;;;128.05;72.65;;;;;;;18.14;75.32;99243.78;4896422;29;20043;-60
2023/03/08 01:29:53;;;;;;;130.00;73.25;;;;;;;18.10;75.53;99242.59;4942619;28;20090;-61
2023/03/08 01:32:35;;;;;;;136.65;73.95;;;;;;;18.05;75.78;99229.88;4920758;28;20069;-60
2023/03/08 01:35:25;;;;;;;135.55;73.15;;;;;;;18.13;76.10;99242.94;4933311;29;20832;-61
2023/03/08 01:38:07;;;;;;;147.40;76.80;;;;;;;18.17;75.90;99244.13;4932261;28;20044;-60
2023/03/08 01:41:02;;;;;;;132.38;74.60;;;;;;;18.13;75.77;99242.94;4932769;28;20301;-60
2023/03/08 01:43:45;;;;;;;136.27;74.22;;;;;;;18.20;75.99;99237.47;4949867;28;20047;-60
2023/03/08 01:46:36;;;;;;;141.27;76.38;;;;;;;18.29;75.57;99246.84;4931726;28;20052;-60
2023/03/08 01:49:34;;;;;;;141.25;77.50;;;;;;;18.27;74.91;99259.66;4932805;29;20742;-60
2023/03/08 01:52:36;;;;;;;143.63;74.57;;;;;;;18.31;75.15;99260.84;4940489;29;20146;-60
2023/03/08 01:55:19;;;;;;;140.15;72.88;;;;;;;18.30;74.59;99245.78;4914594;29;20074;-61
2023/03/08 01:58:09;;;;;;;134.52;74.38;;;;;;;18.38;74.45;99262.38;4918214;29;20057;-62
2023/03/08 02:00:51;;;;;;;140.35;74.28;;;;;;;18.39;74.46;99247.09;4933082;29;20051;-61
2023/03/08 02:03:41;;;;;;;142.82;72.90;;;;;;;18.68;73.96;99253.47;4908782;29;20048;-61
2023/03/08 02:06:27;;;;;;;136.05;70.97;;;;;;;18.80;73.12;99252.47;4921138;28;20055;-61
2023/03/08 02:09:16;;;;;;;138.77;71.95;;;;;;;18.86;72.43;99253.38;4932444;29;20440;-61
2023/03/08 02:12:17;;;;;;;127.13;69.35;;;;;;;18.96;72.48;99268.91;4932005;28;20059;-61
2023/03/08 02:15:09;;;;;;;127.65;68.57;;;;;;;19.00;72.12;99272.78;4894274;29;20048;-61
2023/03/08 02:17:56;;;;;;;122.65;68.78;;;;;;;19.12;71.53;99270.91;4910013;29;20060;-63
2023/03/08 02:20:45;;;;;;;132.70;67.75;;;;;;;19.21;71.25;99278.38;4910290;29;20567;-61
2023/03/08 02:23:30;;;;;;;119.13;63.80;;;;;;;19.35;70.24;99278.13;4933978;28;20147;-61
2023/03/08 02:26:19;;;;;;;133.55;59.97;;;;;;;19.55;69.90;99279.44;4924494;29;20110;-61
2023/03/08 02:29:02;;;;;;;105.45;56.83;;;;;;;19.91;68.19;99282.88;4945218;29;20047;-62
2023/03/08 02:31:57;;;;;;;78.78;44.85;;;;;;;20.83;62.69;99289.69;4914354;29;20434;-61
2023/03/08 02:34:32;;;;;;;81.68;39.47;;;;;;;21.34;59.13;99280.53;4921297;29;20055;-63
2023/03/08 02:37:28;;;;;;;74.97;36.40;;;;;;;21.64;60.37;99295.50;4928430;28;20073;-62
2023/03/08 02:40:04;;;;;;;61.25;33.97;;;;;;;21.88;59.34;99299.59;4896148;29;20055;-62
2023/03/08 02:43:00;;;;;;;;;;;;;;;22.54;56.12;99305.75;4913954;29;20058;-62
2023/03/08 02:45:39;;;;;;;53.28;29.20;;;;;;;23.23;53.98;99312.84;4929151;29;19926;-63
2023/03/08 02:48:36;;;;;;;53.92;27.55;;;;;;;24.01;51.22;99305.72;4921133;29;20142;-61
2023/03/08 02:51:12;;;;;;;56.25;28.25;;;;;;;24.26;49.01;99312.31;4921139;29;20074;-60
2023/03/08 02:54:10;;;;;;;42.85;25.13;;;;;;;24.69;46.63;99325.44;4923762;29;20047;-60
2023/03/08 02:56:45;;;;;;;45.70;25.95;;;;;;;24.57;45.89;99319.44;4920729;29;20375;-60
2023/03/08 02:59:42;;;;;;;46.13;25.23;;;;;;;24.86;45.45;99320.63;4913734;29;20051;-60
2023/03/08 03:02:17;;;;;;;50.33;25.67;;;;;;;25.51;44.54;99332.47;4896771;29;20736;-62
2023/03/08 03:05:16;;;;;;;50.88;26.00;;;;;;;25.94;44.15;99347.31;4916354;29;20129;-61
2023/03/08 03:07:51;;;;;;;54.08;24.85;;;;;;;25.74;44.94;99348.19;4913056;29;20114;-63
2023/03/08 03:10:47;;;;;;;59.38;24.70;;;;;;;25.51;43.86;99354.19;4929293;29;20052;-60
2023/03/08 03:13:29;;;;;;;39.60;23.75;;;;;;;25.34;45.83;99353.66;4924025;28;20047;-61
2023/03/08 03:16:22;;;;;;;41.20;22.63;;;;;;;25.69;45.54;99353.63;4914947;29;20075;-62
2023/03/08 03:19:05;;;;;;;50.85;23.88;;;;;;;25.72;46.13;99372.06;4900883;29;20059;-61
2023/03/08 03:21:54;;;;;;;58.88;25.83;;;;;;;25.72;47.87;99372.06;4922940;29;20067;-62
2023/03/08 03:24:37;;;;;;;43.75;23.65;;;;;;;25.73;46.14;99376.41;4928411;29;20491;-61
2023/03/08 03:27:26;;;;;;;48.25;22.95;;;;;;;25.79;43.67;99380.75;4917225;29;20122;-62
2023/03/08 03:30:10;;;;;;;45.08;24.83;;;;;;;26.35;45.86;99370.53;4911860;29;20055;-62
2023/03/08 03:33:00;;;;;;;41.83;22.33;;;;;;;26.64;44.43;99386.16;4921282;29;20058;-60
2023/03/08 03:35:49;;;;;;;37.78;22.13;;;;;;;27.00;42.95;99389.47;4921696;29;20151;-61
2023/03/08 03:38:32;;;;;;;41.80;20.40;;;;;;;27.13;44.22;99394.28;4927136;29;20118;-61
2023/03/08 03:41:23;;;;;;;42.97;23.33;;;;;;;27.06;44.76;99397.31;4906542;29;20047;-61
2023/03/08 03:44:17;;;;;;;34.45;21.23;;;;;;;26.66;41.80;99406.50;4896050;29;20040;-61
2023/03/08 03:46:59;;;;;;;39.10;21.80;;;;;;;26.58;43.12;99411.72;4909236;29;20118;-61
2023/03/08 03:49:48;;;;;;;33.22;19.17;;;;;;;26.13;42.55;99401.81;4911953;29;20079;-60
2023/03/08 03:52:32;;;;;;;37.70;18.15;;;;;;;26.12;43.81;99419.19;4916029;29;20067;-59
2023/03/08 03:55:21;;;;;;;25.77;15.05;;;;;;;25.68;43.75;99409.00;4911878;29;20091;-59
2023/03/08 03:58:04;;;;;;;34.95;16.13;;;;;;;25.90;44.29;99416.81;4917544;29;20668;-61
2023/03/08 04:00:55;;;;;;;30.58;14.70;;;;;;;25.78;43.41;99413.59;4900469;29;20390;-61
2023/03/08 04:03:38;;;;;;;27.08;14.27;;;;;;;25.86;42.98;99424.69;4892442;29;20059;-62
2023/03/08 04:06:33;;;;;;;27.83;13.15;;;;;;;26.29;43.50;99419.72;4878288;29;20055;-61
2023/03/08 04:09:18;;;;;;;28.20;13.32;;;;;;;26.41;41.17;99425.66;4926569;29;20040;-61
2023/03/08 04:12:21;;;;;;;31.67;15.43;;;;;;;26.20;41.97;99418.66;4909944;28;20106;-61
2023/03/08 04:15:11;;;;;;;28.42;14.43;;;;;;;26.62;43.30;99432.63;4907593;29;20544;-61
2023/03/08 04:18:01;;;;;;;28.38;13.20;;;;;;;26.85;41.18;99416.75;4908585;29;20459;-59
2023/03/08 04:20:58;;;;;;;24.30;12.63;;;;;;;26.67;41.95;99416.28;4892228;29;20044;-59
2023/03/08 04:23:35;;;;;;;21.08;13.10;;;;;;;27.21;42.77;99413.53;4927744;29;20416;-60
2023/03/08 04:26:31;;;;;;;19.02;13.15;;;;;;;27.75;41.62;99420.69;4909994;29;20129;-61
2023/03/08 04:29:07;;;;;;;28.20;14.18;;;;;;;27.73;41.15;99424.81;4890822;29;20051;-62
2023/03/08 04:32:02;;;;;;;29.23;13.77;;;;;;;27.33;40.44;99429.47;4904182;29;20080;-61
2023/03/08 04:34:57;;;;;;;22.05;13.80;;;;;;;27.56;39.62;99427.97;4902731;29;20051;-61
2023/03/08 04:37:55;;;;;;;31.83;14.23;;;;;;;27.78;39.23;99414.69;4914196;29;20079;-61
2023/03/08 04:40:32;;;;;;;33.70;14.65;;;;;;;27.80;41.82;99425.28;4913264;29;20048;-60
2023/03/08 04:43:27;;;;;;;26.35;13.73;;;;;;;27.39;40.03;99431.06;4907650;29;20091;-61
2023/03/08 04:46:04;;;;;;;23.65;13.30;;;;;;;27.41;40.59;99425.31;4932084;29;20054;-63
2023/03/08 04:49:00;;;;;;;30.55;13.88;;;;;;;27.85;40.17;99422.50;4894325;29;20044;-62
2023/03/08 04:51:42;;;;;;;25.15;14.63;;;;;;;28.16;41.80;99423.84;4929750;29;20055;-65
2023/03/08 04:54:39;;;;;;;31.30;15.32;;;;;;;28.29;40.45;99416.88;4908708;29;20058;-64
2023/03/08 04:57:21;;;;;;;27.15;13.68;;;;;;;28.64;41.29;99407.41;4910364;29;20055;-61
2023/03/08 05:00:19;;;;;;;22.90;13.23;;;;;;;28.22;39.96;99409.06;4923111;29;20531;-61
2023/03/08 05:02:55;;;;;;;21.02;11.63;;;;;;;28.61;40.73;99399.84;4894348;29;20135;-63
2023/03/08 05:05:52;;;;;;;22.13;11.48;;;;;;;28.46;39.24;99400.84;4920558;29;20055;-61
2023/03/08 05:08:27;;;;;;;18.90;11.27;;;;;;;28.67;40.20;99393.22;4926764;29;20053;-62
2023/03/08 05:11:26;;;;;;;;;;;;;;;28.81;41.20;99396.88;4924936;29;20425;-64
2023/03/08 05:14:10;;;;;;;21.27;10.68;;;;;;;28.92;41.69;99399.16;4935029;28;19932;-64
2023/03/08 05:17:04;;;;;;;21.70;10.45;;;;;;;28.38;40.30;99396.88;4912414;29;20055;-63
2023/03/08 05:19:46;;;;;;;20.42;10.88;;;;;;;28.61;40.25;99391.66;4921384;29;20051;-62
2023/03/08 05:22:42;;;;;;;28.23;10.50;;;;;;;28.32;38.27;99389.06;4901082;29;20490;-63
2023/03/08 05:26:17;;;;;;;26.63;11.77;;;;;;;28.41;39.82;99390.81;4902815;29;20122;-62
2023/03/08 05:29:48;;;;;;;17.98;10.73;;;;;;;28.12;40.44;99382.75;4902529;29;20376;-63
2023/03/08 05:33:17;;;;;;;21.95;11.25;;;;;;;28.62;39.19;99379.66;4908813;29;20102;-62
2023/03/08 05:36:06;;;;;;;14.02;9.55;;;;;;;28.98;39.15;99375.34;4912235;29;20052;-62
2023/03/08 05:38:54;;;;;;;23.95;12.07;;;;;;;29.49;40.29;99377.25;4903469;29;20138;-61
2023/03/08 05:41:50;;;;;;;21.13;12.05;;;;;;;29.52;41.18;99369.25;4891316;29;20050;-61
2023/03/08 05:44:45;;;;;;;14.05;10.05;;;;;;;29.60;38.96;99362.31;4909393;29;20420;-61
2023/03/08 05:47:33;;;;;;;19.23;9.70;;;;;;;29.71;37.75;99363.72;4891087;29;20056;-62
2023/03/08 05:50:29;;;;;;;20.70;9.80;;;;;;;29.85;37.95;99364.56;4925786;29;20040;-61
2023/03/08 05:53:05;;;;;;;20.10;10.30;;;;;;;29.76;37.16;99361.72;4910185;29;21526;-61
2023/03/08 05:55:55;;;;;;;20.65;10.68;;;;;;;29.76;39.05;99359.00;4911517;29;20381;-61
2023/03/08 05:58:37;;;;;;;15.65;10.50;;;;;;;30.01;36.68;99344.03;4910884;29;20048;-62
2023/03/08 06:01:30;;;;;;;;;;;;;;;30.13;37.52;99354.47;4908501;29;20044;-60
2023/03/08 06:04:30;;;;;;;22.45;10.07;;;;;;;29.96;36.50;99346.91;4918532;29;19927;-61
2023/03/08 06:07:12;;;;;;;28.85;10.82;;;;;;;30.02;38.71;99345.66;4916701;29;20456;-62
2023/03/08 06:10:11;;;;;;;20.88;9.88;;;;;;;29.89;36.62;99341.00;4906872;29;20151;-61
2023/03/08 06:13:07;;;;;;;15.60;9.88;;;;;;;29.58;38.33;99337.22;4896506;29;20751;-61
2023/03/08 06:15:57;;;;;;;20.88;10.30;;;;;;;29.53;36.26;99323.66;4926196;29;20052;-61
2023/03/08 06:18:47;;;;;;;14.85;10.32;;;;;;;29.97;38.65;99332.09;4910262;29;20055;-60
2023/03/08 06:21:44;;;;;;;18.08;9.48;;;;;;;29.84;38.30;99330.16;4909949;29;20492;-62
2023/03/08 06:24:20;;;;;;;20.80;9.68;;;;;;;30.01;36.50;99324.09;4923462;29;20052;-60
2023/03/08 06:27:19;;;;;;;18.48;9.38;;;;;;;30.18;37.21;99324.31;4918555;29;20127;-61
2023/03/08 06:29:57;;;;;;;21.50;9.70;;;;;;;30.27;36.54;99322.47;4903329;29;20060;-63
2023/03/08 06:32:54;;;;;;;;;;;;;;;30.29;36.90;99321.03;4921599;29;20047;-61
2023/03/08 06:35:30;;;;;;;18.50;8.38;;;;;;;30.45;37.58;99307.06;4914935;29;20025;-62
2023/03/08 06:38:25;;;;;;;25.08;10.25;;;;;;;30.22;36.92;99300.72;4912986;29;20087;-62
2023/03/08 06:41:04;;;;;;;19.10;10.02;;;;;;;30.22;34.85;99312.47;4910773;29;20051;-61
2023/03/08 06:43:59;;;;;;;18.88;9.95;;;;;;;29.92;35.90;99301.38;4910428;29;20056;-61
2023/03/08 06:46:42;;;;;;;19.45;8.85;;;;;;;29.95;35.97;99304.28;4907165;29;20099;-63
2023/03/08 06:49:33;;;;;;;14.25;8.90;;;;;;;29.85;37.07;99301.72;4909045;29;20158;-62
2023/03/08 06:52:22;;;;;;;16.35;9.27;;;;;;;29.95;35.89;99296.09;4883773;29;20138;-62
2023/03/08 06:55:05;;;;;;;21.73;10.20;;;;;;;30.03;34.71;99297.28;4915635;29;20150;-62
2023/03/08 06:57:56;;;;;;;21.52;10.10;;;;;;;30.03;36.28;99291.84;4926110;29;20158;-62
2023/03/08 07:00:39;;;;;;;17.02;9.10;;;;;;;30.21;35.04;99286.25;4929555;29;20783;-62
2023/03/08 07:03:28;;;;;;;29.17;10.05;;;;;;;29.96;36.09;99289.53;4920969;29;20058;-61
2023/03/08 07:06:10;;;;;;;16.45;8.82;;;;;;;30.21;35.34;99280.78;4918098;29;20526;-62
2023/03/08 07:08:59;;;;;;;18.60;9.77;;;;;;;29.88;37.37;99282.03;4907793;29;20138;-61
2023/03/08 07:11:41;;;;;;;14.63;9.88;;;;;;;30.02;36.33;99282.81;4922129;29;20048;-61
2023/03/08 07:14:36;;;;;;;18.48;9.05;;;;;;;29.99;36.63;99275.25;4917130;29;20047;-61
2023/03/08 07:17:25;;;;;;;13.50;8.65;;;;;;;30.31;36.71;99269.63;4919995;29;20563;-61
2023/03/08 07:20:15;;;;;;;15.57;8.68;;;;;;;30.28;36.67;99270.22;4920323;29;20716;-61
2023/03/08 07:23:00;;;;;;;14.60;8.20;;;;;;;30.29;35.75;99265.56;4908586;29;20561;-61
2023/03/08 07:25:49;;;;;;;11.82;8.65;;;;;;;30.20;35.45;99254.56;4920177;29;20057;-61
2023/03/08 07:28:32;;;;;;;13.38;8.45;;;;;;;30.28;34.41;99253.00;4904454;29;20070;-61
2023/03/08 07:31:21;;;;;;;17.70;9.95;;;;;;;30.37;35.04;99244.88;4916514;29;20484;-60
2023/03/08 07:34:03;;;;;;;15.05;8.63;;;;;;;30.19;36.12;99250.19;4924000;29;20044;-62
2023/03/08 07:36:52;;;;;;;17.13;8.57;;;;;;;30.33;36.07;99240.03;4920494;29;20147;-60
2023/03/08 07:39:34;;;;;;;20.63;10.18;;;;;;;30.02;35.49;99239.13;4903630;29;20052;-60
2023/03/08 07:42:23;;;;;;;13.43;9.57;;;;;;;30.01;35.15;99226.56;4923368;29;20060;-62
2023/03/08 07:45:24;;;;;;;13.57;8.85;;;;;;;30.03;34.91;99226.25;4897831;29;20056;-62
2023/03/08 07:48:06;;;;;;;16.35;10.15;;;;;;;30.04;36.40;99215.03;4901134;29;20145;-62
2023/03/08 07:51:07;;;;;;;13.65;8.77;;;;;;;30.19;36.25;99225.59;4921600;29;20064;-61
2023/03/08 07:53:43;;;;;;;18.50;9.80;;;;;;;30.13;34.56;99210.47;4923529;29;20116;-61
2023/03/08 07:56:38;;;;;;;15.73;9.05;;;;;;;30.20;36.13;99202.63;4902601;29;20059;-61
2023/03/08 07:59:14;;;;;;;16.83;9.38;;;;;;;30.04;34.90;99201.38;4916573;29;20470;-60
2023/03/08 08:02:10;;;;;;;17.15;9.02;;;;;;;30.05;34.43;99199.47;4904947;29;20770;-61
2023/03/08 08:04:46;;;;;;;17.38;9.68;;;;;;;30.04;34.64;99184.97;4924411;29;20467;-60
2023/03/08 08:07:41;;;;;;;18.08;9.43;;;;;;;30.09;35.81;99190.34;4921905;29;20048;-60
2023/03/08 08:10:17;;;;;;;16.52;9.43;;;;;;;30.08;35.80;99185.97;4919917;29;20047;-62
2023/03/08 08:13:12;;;;;;;17.83;10.38;;;;;;;30.09;36.18;99181.31;4906016;29;20151;-62
2023/03/08 08:16:00;;;;;;;16.08;10.13;;;;;;;30.02;38.23;99180.94;4904152;29;20066;-62
2023/03/08 08:18:58;;;;;;;21.45;10.45;;;;;;;30.01;37.07;99177.38;4903793;29;20048;-62
2023/03/08 08:21:33;;;;;;;14.43;10.52;;;;;;;29.88;36.80;99179.03;4919594;29;20051;-61
2023/03/08 08:24:22;;;;;;;21.23;10.77;;;;;;;29.70;35.53;99163.56;4915906;29;20048;-60
2023/03/08 08:27:04;;;;;;;18.30;9.82;;;;;;;29.67;36.13;99164.19;4909920;29;20051;-61
2023/03/08 08:29:55;;;;;;;13.43;9.90;;;;;;;29.50;36.28;99153.09;4928062;29;20138;-61
2023/03/08 08:32:39;;;;;;;18.98;10.50;;;;;;;29.62;37.17;99152.56;4928371;29;20066;-61
2023/03/08 08:35:28;;;;;;;14.25;8.80;;;;;;;29.61;36.19;99146.28;4928047;29;20866;-61
2023/03/08 08:38:23;;;;;;;17.33;9.27;;;;;;;29.59;36.62;99155.91;4927988;29;20052;-61
2023/03/08 08:41:06;;;;;;;19.17;8.45;;;;;;;29.70;37.67;99143.66;4916947;29;20109;-61
2023/03/08 08:43:57;;;;;;;22.42;9.50;;;;;;;29.70;35.56;99133.53;4908277;29;20134;-61
2023/03/08 08:46:40;;;;;;;23.25;8.65;;;;;;;29.39;34.42;99130.66;4934169;29;20813;-61
2023/03/08 08:49:29;;;;;;;16.90;8.40;;;;;;;29.60;36.70;99124.78;4927419;29;20047;-61
2023/03/08 08:52:11;;;;;;;19.27;8.73;;;;;;;29.61;35.02;99127.19;4926796;29;20036;-61
2023/03/08 08:55:00;;;;;;;12.52;7.35;;;;;;;29.57;34.26;99112.53;4917574;29;20056;-61
2023/03/08 08:57:43;;;;;;;12.32;8.05;;;;;;;29.61;36.51;99120.94;4923581;29;20530;-61
2023/03/08 09:00:32;;;;;;;20.95;9.15;;;;;;;29.63;35.51;99111.31;4908835;29;20048;-60
2023/03/08 09:03:27;;;;;;;19.40;9.25;;;;;;;29.70;35.14;99105.41;4925596;29;20059;-61
2023/03/08 09:06:02;;;;;;;10.45;7.40;;;;;;;29.61;34.35;99108.06;4921845;29;20043;-63
2023/03/08 09:09:00;;;;;;;;;;;;;;;29.50;31.13;99103.16;4912301;29;20792;-62
2023/03/08 09:11:35;;;;;;;13.32;7.57;;;;;;;29.43;32.58;99101.63;4911319;29;19927;-61
2023/03/08 09:14:41;;;;;;;10.38;6.82;;;;;;;29.34;33.19;99094.50;4902388;29;20123;-60
2023/03/08 09:17:32;;;;;;;14.65;8.10;;;;;;;29.28;34.58;99090.22;4918631;29;20054;-63
2023/03/08 09:20:22;;;;;;;13.65;8.93;;;;;;;29.30;35.60;99088.00;4917160;29;20052;-61
2023/03/08 09:23:04;;;;;;;18.08;9.93;;;;;;;29.33;36.17;99082.78;4923581;29;20044;-61
2023/03/08 09:26:03;;;;;;;16.48;9.32;;;;;;;29.32;34.79;99085.81;4901310;29;20055;-62
2023/03/08 09:28:45;;;;;;;19.05;8.93;;;;;;;29.23;33.91;99080.22;4919248;29;20612;-61
2023/03/08 09:31:34;;;;;;;14.10;7.22;;;;;;;29.17;33.73;99070.53;4911271;29;20056;-62
2023/03/08 09:34:29;;;;;;;9.82;7.78;;;;;;;29.10;34.00;99072.06;4919784;29;20059;-62
2023/03/08 09:37:07;;;;;;;21.65;9.30;;;;;;;29.04;35.52;99071.34;4916630;29;20059;-61
2023/03/08 09:39:56;;;;;;;12.68;8.38;;;;;;;29.01;37.03;99061.06;4918932;29;20052;-60
2023/03/08 09:42:45;;;;;;;19.77;9.82;;;;;;;29.00;35.71;99056.69;4920733;29;20603;-63
2023/03/08 09:45:40;;;;;;;24.38;10.63;;;;;;;29.03;36.11;99048.72;4919420;29;20055;-61
2023/03/08 09:48:28;;;;;;;13.48;8.48;;;;;;;29.02;35.00;99052.56;4901340;29;20079;-59
2023/03/08 09:51:26;;;;;;;17.15;7.70;;;;;;;29.04;34.79;99057.72;4913165;29;20427;-60
2023/03/08 09:54:11;;;;;;;16.85;7.68;;;;;;;28.91;32.21;99042.97;4917396;29;20142;-62
2023/03/08 09:57:02;;;;;;;17.45;7.95;;;;;;;28.90;31.52;99049.53;4918707;29;20131;-61
2023/03/08 10:00:07;;;;;;;13.07;6.72;;;;;;;28.78;31.11;99043.78;4921503;29;20151;-62
2023/03/08 10:03:25;;;;;;;17.48;7.45;;;;;;;28.71;33.95;99039.84;4920216;29;20059;-61
2023/03/08 10:06:40;;;;;;;11.95;6.90;;;;;;;28.72;30.33;99042.28;4906485;29;20365;-61
2023/03/08 10:09:30;;;;;;;14.38;6.47;;;;;;;28.81;30.84;99035.00;4906216;29;20047;-61
2023/03/08 10:12:28;;;;;;;15.32;6.18;;;;;;;28.73;30.84;99034.91;4921157;29;20071;-62
2023/03/08 10:15:21;;;;;;;17.75;7.47;;;;;;;28.74;31.70;99031.06;4920713;29;20051;-61
2023/03/08 10:18:49;;;;;;;15.35;7.28;;;;;;;28.70;31.74;99027.31;4909513;29;20051;-62
2023/03/08 10:21:35;;;;;;;12.75;6.57;;;;;;;28.70;31.72;99027.31;4919671;29;20103;-61
2023/03/08 10:24:35;;;;;;;14.52;6.13;;;;;;;28.68;30.79;99024.88;4921654;29;20057;-61
2023/03/08 10:27:23;;;;;;;23.05;6.68;;;;;;;28.67;31.55;99026.00;4916655;29;20056;-60
2023/03/08 10:30:25;;;;;;;12.45;7.65;;;;;;;28.61;32.58;99018.22;4924775;29;20135;-60
2023/03/08 10:33:13;;;;;;;18.92;7.72;;;;;;;28.63;33.02;99025.00;4923420;29;20043;-61
2023/03/08 10:36:13;;;;;;;13.60;7.15;;;;;;;28.66;31.96;99018.94;4922830;29;20111;-60
2023/03/08 10:39:01;;;;;;;13.35;7.55;;;;;;;28.62;33.56;99012.47;4921234;29;20483;-60
2023/03/08 10:42:03;;;;;;;11.80;7.05;;;;;;;28.50;32.95;99007.50;4923285;29;20066;-62
2023/03/08 10:44:54;;;;;;;16.35;7.72;;;;;;;28.49;34.08;99005.09;4922540;29;20166;-60
2023/03/08 10:47:43;;;;;;;13.88;7.82;;;;;;;28.49;35.77;99008.63;4922558;29;20480;-61
2023/03/08 10:50:28;;;;;;;18.40;7.90;;;;;;;28.45;33.91;99004.09;4919233;29;20520;-61
2023/03/08 10:53:27;;;;;;;24.63;9.98;;;;;;;28.30;35.15;98997.00;4921249;29;20083;-61
2023/03/08 10:56:46;;;;;;;14.13;6.70;;;;;;;28.36;33.84;99006.69;4904649;29;20048;-62
2023/03/08 10:59:41;;;;;;;16.58;8.27;;;;;;;28.25;34.01;98997.09;4898534;29;20059;-61
2023/03/08 11:02:23;;;;;;;14.60;8.38;;;;;;;28.15;33.89;98999.22;4920980;29;20063;-59
2023/03/08 11:05:38;;;;;;;21.90;8.68;;;;;;;28.13;35.38;99004.94;4894504;29;20475;-62
2023/03/08 11:08:24;;;;;;;14.38;7.53;;;;;;;28.06;35.95;98996.31;4896252;29;20051;-61
2023/03/08 11:11:18;;;;;;;17.83;7.97;;;;;;;28.07;36.31;99000.66;4914727;29;20070;-59
2023/03/08 11:14:01;;;;;;;13.30;7.18;;;;;;;28.03;33.00;98999.63;4928988;29;20142;-59
2023/03/08 11:17:14;;;;;;;8.82;5.38;;;;;;;27.95;30.04;98992.16;4912901;29;20124;-59
2023/03/08 11:20:09;;;;;;;17.83;7.68;;;;;;;28.02;32.25;98998.00;4921584;29;20538;-59
2023/03/08 11:23:18;;;;;;;20.48;8.52;;;;;;;27.94;33.81;98996.78;4937000;28;20059;-56
2023/03/08 11:26:15;;;;;;;16.00;7.68;;;;;;;27.86;34.64;98985.78;4921572;29;20062;-59
2023/03/08 11:29:31;;;;;;;22.13;8.75;;;;;;;27.79;35.83;98982.66;4919047;29;20063;-59
2023/03/08 11:32:45;;;;;;;29.15;8.52;;;;;;;27.72;35.70;98984.91;4903901;29;20467;-59
2023/03/08 11:35:46;;;;;;;17.92;7.18;;;;;;;27.66;35.31;98985.00;4881209;29;20055;-61
2023/03/08 11:38:30;;;;;;;16.15;7.18;;;;;;;27.69;34.38;98986.34;4928551;29;20055;-60
2023/03/08 11:41:34;;;;;;;15.82;6.93;;;;;;;27.65;35.51;98979.88;4928681;29;20050;-60
2023/03/08 11:44:35;;;;;;;16.23;6.88;;;;;;;27.52;35.40;98973.28;4911649;29;20055;-60
2023/03/08 11:47:42;;;;;;;13.05;6.72;;;;;;;27.49;35.81;98976.56;4896441;29;20052;-60
2023/03/08 11:51:07;;;;;;;16.23;6.90;;;;;;;27.43;35.86;98969.59;4920761;29;20048;-61
2023/03/08 11:54:17;;;;;;;18.02;6.82;;;;;;;27.38;35.06;98963.41;4921863;29;20052;-58
2023/03/08 11:57:16;;;;;;;22.85;7.25;;;;;;;27.35;35.81;98970.22;4900029;29;20047;-55
2023/03/08 12:00:11;;;;;;;12.65;5.95;;;;;;;27.29;34.03;98971.44;4906769;29;20058;-60
2023/03/08 12:02:58;;;;;;;12.68;6.40;;;;;;;27.19;33.92;98961.50;4904586;29;20488;-58
2023/03/08 12:06:01;;;;;;;21.40;7.20;;;;;;;27.16;33.82;98966.72;4904081;29;20051;-62
2023/03/08 12:08:52;;;;;;;24.90;7.30;;;;;;;27.14;35.25;98958.84;4933111;28;20043;-63
2023/03/08 12:11:50;;;;;;;11.98;5.78;;;;;;;27.04;35.29;98972.59;4911555;29;20062;-61
2023/03/08 12:14:37;;;;;;;11.57;6.63;;;;;;;27.01;35.55;98966.94;4927661;29;20047;-59
2023/03/08 12:17:36;;;;;;;16.52;6.40;;;;;;;26.89;36.21;98966.56;4921753;29;20468;-60
2023/03/08 12:20:21;;;;;;;21.58;7.00;;;;;;;26.76;36.30;98965.34;4924315;29;20397;-61
2023/03/08 12:23:27;;;;;;;13.70;6.95;;;;;;;26.67;36.08;98964.38;4938345;28;20058;-62
2023/03/08 12:26:30;;;;;;;11.73;6.70;;;;;;;26.63;35.96;98974.19;4918274;29;20051;-61
2023/03/08 12:29:28;;;;;;;16.85;6.43;;;;;;;26.55;36.49;98972.94;4926296;29;20059;-62
2023/03/08 12:32:17;;;;;;;16.80;5.68;;;;;;;26.49;35.11;98978.72;4931809;29;20423;-62
2023/03/08 12:35:19;;;;;;;15.10;5.65;;;;;;;26.40;35.00;98978.53;4934911;29;20046;-63
2023/03/08 12:38:20;;;;;;;13.30;5.70;;;;;;;26.32;35.16;98979.19;4935677;29;20118;-64
2023/03/08 12:41:12;;;;;;;13.70;4.82;;;;;;;26.25;34.50;98984.13;4918548;29;20063;-64
2023/03/08 12:44:21;;;;;;;15.25;6.00;;;;;;;26.20;35.88;98981.47;4941535;28;20138;-64
2023/03/08 12:47:19;;;;;;;22.23;6.43;;;;;;;26.17;36.04;98980.09;4936281;28;20043;-64
2023/03/08 12:50:16;;;;;;;13.55;6.60;;;;;;;26.05;36.98;98979.69;4932820;28;20058;-63
2023/03/08 12:53:05;;;;;;;18.52;6.07;;;;;;;25.98;36.44;98990.06;4932782;29;20074;-63
2023/03/08 12:56:20;;;;;;;11.98;5.90;;;;;;;25.94;36.18;98987.09;4929092;29;20749;-64
2023/03/08 12:59:48;;;;;;;15.48;5.78;;;;;;;25.85;36.55;98985.28;4928157;29;20082;-64
2023/03/08 13:02:33;;;;;;;15.20;6.60;;;;;;;25.76;39.58;98989.72;4921529;29;20524;-63
2023/03/08 13:05:27;;;;;;;22.55;7.00;;;;;;;25.63;39.24;98983.03;4929399;29;20065;-61
2023/03/08 13:08:12;;;;;;;29.02;7.97;;;;;;;25.53;40.58;98982.28;4909318;29;20039;-61
2023/03/08 13:11:17;;;;;;;24.52;8.00;;;;;;;25.46;41.50;98988.03;4923806;28;20510;-60